createdAt,value
2018-10-09T00:00:14.786Z,99.99
2018-10-09T00:01:24.465Z,99.99
2018-10-09T00:02:34.431Z,99.99
2018-10-09T00:03:44.374Z,99.99
2018-10-09T00:04:54.055Z,99.99
2018-10-09T00:06:03.469Z,99.99
2018-10-09T00:07:13.159Z,99.99
2018-10-09T00:08:22.834Z,99.99
2018-10-09T00:09:32.775Z,99.99
2018-10-09T00:10:42.450Z,99.99
2018-10-09T00:11:52.392Z,99.99
2018-10-09T00:13:02.314Z,99.99
2018-10-09T00:14:11.988Z,99.99
2018-10-09T00:15:21.920Z,99.99
2018-10-09T00:16:31.851Z,99.99
2018-10-09T00:17:41.804Z,99.99
2018-10-09T00:18:51.492Z,99.99
2018-10-09T00:20:01.426Z,99.99
2018-10-09T00:21:11.106Z,99.99
2018-10-09T00:22:21.051Z,99.99
2018-10-09T00:23:30.738Z,99.99
2018-10-09T00:24:40.678Z,99.99
2018-10-09T00:25:50.378Z,99.99
2018-10-09T00:27:00.289Z,99.99
2018-10-09T00:28:10.241Z,99.99
2018-10-09T00:29:20.185Z,99.99
2018-10-09T00:30:30.183Z,99.99
2018-10-09T00:31:40.132Z,99.99
2018-10-09T00:32:49.808Z,99.99
2018-10-09T00:33:59.740Z,99.99
2018-10-09T00:35:09.434Z,99.99
2018-10-09T00:36:19.369Z,99.99
2018-10-09T00:37:29.045Z,99.99
2018-10-09T00:38:38.741Z,99.99
2018-10-09T00:39:48.416Z,99.99
2018-10-09T00:40:58.353Z,99.99
2018-10-09T00:42:08.290Z,99.99
2018-10-09T00:43:17.695Z,99.99
2018-10-09T00:44:27.385Z,99.99
2018-10-09T00:45:37.313Z,99.99
2018-10-09T00:46:47.258Z,99.99
2018-10-09T00:47:56.936Z,99.99
2018-10-09T00:49:06.878Z,99.99
2018-10-09T00:50:16.575Z,99.99
2018-10-09T00:51:25.998Z,99.99
2018-10-09T00:52:35.933Z,99.99
2018-10-09T00:53:45.601Z,99.99
2018-10-09T00:54:55.532Z,99.99
2018-10-09T00:56:05.461Z,99.99
2018-10-09T00:57:15.389Z,99.99
2018-10-09T00:58:24.790Z,99.99
2018-10-09T00:59:34.466Z,99.99
2018-10-09T01:00:44.404Z,99.99
2018-10-09T01:01:54.085Z,99.99
2018-10-09T01:03:04.010Z,99.99
2018-10-09T01:04:13.941Z,99.99
2018-10-09T01:05:23.612Z,99.99
2018-10-09T01:06:33.546Z,99.99
2018-10-09T01:07:42.960Z,99.99
2018-10-09T01:08:52.643Z,99.99
2018-10-09T01:10:02.687Z,99.99
2018-10-09T01:11:12.098Z,99.99
2018-10-09T01:12:21.773Z,99.99
2018-10-09T01:13:31.720Z,99.99
2018-10-09T01:14:41.395Z,99.99
2018-10-09T01:15:51.330Z,99.99
2018-10-09T01:17:01.257Z,99.99
2018-10-09T01:18:10.939Z,99.99
2018-10-09T01:19:20.858Z,99.99
2018-10-09T01:20:30.789Z,99.99
2018-10-09T01:21:40.718Z,99.99
2018-10-09T01:22:50.640Z,99.99
2018-10-09T01:24:00.586Z,99.99
2018-10-09T01:25:10.256Z,99.99
2018-10-09T01:26:20.196Z,99.99
2018-10-09T01:27:30.143Z,99.99
2018-10-09T01:28:40.073Z,99.99
2018-10-09T01:29:49.754Z,99.99
2018-10-09T01:30:59.681Z,99.99
2018-10-09T01:32:09.612Z,99.99
2018-10-09T01:33:19.281Z,99.99
2018-10-09T01:34:28.960Z,99.99
2018-10-09T01:35:38.392Z,99.99
2018-10-09T01:36:48.324Z,99.99
2018-10-09T01:37:58.258Z,99.99
2018-10-09T01:39:08.190Z,99.99
2018-10-09T01:40:18.142Z,99.99
2018-10-09T01:41:28.074Z,99.99
2018-10-09T01:42:38.037Z,99.99
2018-10-09T01:43:47.953Z,99.99
2018-10-09T01:44:57.629Z,99.99
2018-10-09T01:46:07.277Z,99.99
2018-10-09T01:47:16.958Z,99.99
2018-10-09T01:48:26.891Z,99.99
2018-10-09T01:49:36.820Z,99.99
2018-10-09T01:50:46.750Z,99.99
2018-10-09T01:51:56.163Z,99.99
2018-10-09T01:53:05.580Z,99.99
2018-10-09T01:54:15.502Z,99.99
2018-10-09T01:55:25.178Z,99.99
2018-10-09T01:56:34.851Z,99.99
2018-10-09T01:57:44.779Z,99.99
2018-10-09T01:58:54.448Z,99.99
2018-10-09T02:00:03.868Z,99.99
2018-10-09T02:01:13.531Z,99.99
2018-10-09T02:02:23.202Z,99.99
2018-10-09T02:03:33.143Z,99.99
2018-10-09T02:04:43.089Z,99.99
2018-10-09T02:05:53.016Z,99.99
2018-10-09T02:07:02.695Z,99.99
2018-10-09T02:08:12.647Z,99.99
2018-10-09T02:09:22.574Z,99.99
2018-10-09T02:10:32.247Z,99.99
2018-10-09T02:11:41.928Z,99.99
2018-10-09T02:12:51.872Z,99.99
2018-10-09T02:14:01.553Z,99.99
2018-10-09T02:15:11.485Z,99.99
2018-10-09T02:16:21.409Z,99.99
2018-10-09T02:17:31.329Z,99.99
2018-10-09T02:18:41.000Z,99.99
2018-10-09T02:19:50.950Z,99.99
2018-10-09T02:21:00.882Z,99.99
2018-10-09T02:22:10.825Z,99.99
2018-10-09T02:23:20.241Z,99.99
2018-10-09T02:24:29.658Z,99.99
2018-10-09T02:25:39.086Z,99.99
2018-10-09T02:26:49.046Z,99.99
2018-10-09T02:27:58.978Z,99.99
2018-10-09T02:29:08.916Z,99.99
2018-10-09T02:30:18.595Z,99.99
2018-10-09T02:31:28.013Z,99.99
2018-10-09T02:32:37.948Z,99.99
2018-10-09T02:33:48.045Z,99.99
2018-10-09T02:34:58.006Z,99.99
2018-10-09T02:36:07.433Z,99.99
2018-10-09T02:37:17.382Z,99.99
2018-10-09T02:38:27.312Z,99.99
2018-10-09T02:39:37.230Z,99.99
2018-10-09T02:40:46.405Z,99.99
2018-10-09T02:41:56.070Z,99.99
2018-10-09T02:43:06.018Z,99.99
2018-10-09T02:44:15.691Z,99.99
2018-10-09T02:45:25.634Z,99.99
2018-10-09T02:46:35.579Z,99.99
2018-10-09T02:47:45.510Z,99.99
2018-10-09T02:48:55.445Z,99.99
2018-10-09T02:50:05.116Z,99.99
2018-10-09T02:51:15.082Z,99.99
2018-10-09T02:52:24.789Z,99.99
2018-10-09T02:53:34.717Z,99.99
2018-10-09T02:54:44.654Z,99.99
2018-10-09T02:55:54.599Z,99.99
2018-10-09T02:57:04.282Z,99.99
2018-10-09T02:58:14.213Z,99.99
2018-10-09T02:59:24.139Z,99.99
2018-10-09T03:00:33.823Z,99.99
2018-10-09T03:01:43.793Z,99.99
2018-10-09T03:02:53.725Z,99.99
2018-10-09T03:04:03.698Z,99.99
2018-10-09T03:05:13.635Z,99.99
2018-10-09T03:06:23.575Z,99.99
2018-10-09T03:07:33.247Z,99.99
2018-10-09T03:08:42.783Z,99.99
2018-10-09T03:09:52.738Z,99.99
2018-10-09T03:11:02.680Z,99.99
2018-10-09T03:12:12.616Z,99.99
2018-10-09T03:13:22.309Z,99.99
2018-10-09T03:14:32.237Z,99.99
2018-10-09T03:15:42.181Z,99.99
2018-10-09T03:16:51.842Z,99.99
2018-10-09T03:18:01.286Z,99.99
2018-10-09T03:19:10.707Z,99.99
2018-10-09T03:20:20.653Z,99.99
2018-10-09T03:21:30.649Z,99.99
2018-10-09T03:22:40.587Z,99.99
2018-10-09T03:23:50.260Z,99.99
2018-10-09T03:25:00.203Z,99.99
2018-10-09T03:26:10.143Z,99.99
2018-10-09T03:27:20.081Z,99.99
2018-10-09T03:28:29.759Z,99.99
2018-10-09T03:29:39.715Z,99.99
2018-10-09T03:30:49.657Z,99.99
2018-10-09T03:31:59.590Z,99.99
2018-10-09T03:33:09.507Z,99.99
2018-10-09T03:34:19.191Z,99.99
2018-10-09T03:35:28.882Z,99.99
2018-10-09T03:36:38.561Z,99.99
2018-10-09T03:37:48.510Z,99.99
2018-10-09T03:38:58.435Z,99.99
2018-10-09T03:40:08.367Z,99.99
2018-10-09T03:41:18.317Z,99.99
2018-10-09T03:42:28.255Z,99.99
2018-10-09T03:43:38.181Z,99.99
2018-10-09T03:44:47.860Z,99.99
2018-10-09T03:45:57.789Z,99.99
2018-10-09T03:47:07.716Z,99.99
2018-10-09T03:48:17.644Z,99.99
2018-10-09T03:49:27.569Z,99.99
2018-10-09T03:50:37.511Z,99.99
2018-10-09T03:51:47.174Z,99.99
2018-10-09T03:52:57.112Z,99.99
2018-10-09T03:54:07.039Z,99.99
2018-10-09T03:55:16.973Z,99.99
2018-10-09T03:56:26.653Z,99.99
2018-10-09T03:57:36.337Z,99.99
2018-10-09T03:58:46.008Z,99.99
2018-10-09T03:59:55.700Z,99.99
2018-10-09T04:01:05.383Z,99.99
2018-10-09T04:02:15.327Z,99.99
2018-10-09T04:03:25.005Z,99.99
2018-10-09T04:04:34.942Z,99.99
2018-10-09T04:05:44.874Z,99.99
2018-10-09T04:06:54.551Z,99.99
2018-10-09T04:08:04.227Z,99.99
2018-10-09T04:09:14.176Z,99.99
2018-10-09T04:10:24.053Z,99.99
2018-10-09T04:11:33.989Z,99.99
2018-10-09T04:12:44.064Z,99.99
2018-10-09T04:13:54.138Z,99.99
2018-10-09T04:15:03.835Z,99.99
2018-10-09T04:16:13.778Z,99.99
2018-10-09T04:17:23.461Z,99.99
2018-10-09T04:18:33.135Z,99.99
2018-10-09T04:19:43.300Z,99.99
2018-10-09T04:20:52.975Z,99.99
2018-10-09T04:22:02.649Z,99.99
2018-10-09T04:23:12.582Z,99.99
2018-10-09T04:24:22.513Z,99.99
2018-10-09T04:25:32.194Z,99.99
2018-10-09T04:26:42.124Z,99.99
2018-10-09T04:27:51.551Z,99.99
2018-10-09T04:29:01.489Z,99.99
2018-10-09T04:30:11.429Z,99.99
2018-10-09T04:31:21.391Z,99.99
2018-10-09T04:32:31.325Z,99.99
2018-10-09T04:33:41.252Z,99.99
2018-10-09T04:34:51.186Z,99.99
2018-10-09T04:36:01.117Z,99.99
2018-10-09T04:37:11.052Z,99.99
2018-10-09T04:38:20.980Z,99.99
2018-10-09T04:39:30.651Z,99.99
2018-10-09T04:40:40.321Z,99.99
2018-10-09T04:41:49.749Z,99.99
2018-10-09T04:42:59.701Z,99.99
2018-10-09T04:44:09.396Z,99.99
2018-10-09T04:45:19.324Z,99.99
2018-10-09T04:46:29.080Z,99.99
2018-10-09T04:47:39.025Z,99.99
2018-10-09T04:48:48.974Z,99.99
2018-10-09T04:49:58.903Z,99.99
2018-10-09T04:51:08.858Z,99.99
2018-10-09T04:52:18.780Z,99.99
2018-10-09T04:53:28.210Z,99.99
2018-10-09T04:54:38.151Z,99.99
2018-10-09T04:55:48.074Z,99.99
2018-10-09T04:56:58.014Z,99.99
2018-10-09T04:58:07.705Z,99.99
2018-10-09T04:59:17.636Z,99.99
2018-10-09T05:00:27.602Z,99.99
2018-10-09T05:01:37.675Z,99.99
2018-10-09T05:02:47.355Z,99.99
2018-10-09T05:03:57.299Z,99.99
2018-10-09T05:05:07.223Z,99.99
2018-10-09T05:06:16.644Z,99.99
2018-10-09T05:07:26.590Z,99.99
2018-10-09T05:08:36.537Z,99.99
2018-10-09T05:09:46.196Z,99.99
2018-10-09T05:10:56.140Z,99.99
2018-10-09T05:12:05.823Z,99.99
2018-10-09T05:13:15.768Z,99.99
2018-10-09T05:14:25.443Z,99.99
2018-10-09T05:15:35.380Z,99.99
2018-10-09T05:16:45.067Z,99.99
2018-10-09T05:17:55.272Z,99.99
2018-10-09T05:19:05.255Z,99.99
2018-10-09T05:20:14.937Z,99.99
2018-10-09T05:21:24.888Z,99.99
2018-10-09T05:22:34.826Z,99.99
2018-10-09T05:23:44.779Z,99.99
2018-10-09T05:24:54.458Z,99.99
2018-10-09T05:26:04.406Z,99.99
2018-10-09T05:27:14.075Z,99.99
2018-10-09T05:28:23.499Z,99.99
2018-10-09T05:29:33.438Z,99.99
2018-10-09T05:30:43.111Z,99.99
2018-10-09T05:31:53.064Z,99.99
2018-10-09T05:33:03.014Z,99.99
2018-10-09T05:34:12.955Z,99.99
2018-10-09T05:35:22.911Z,99.99
2018-10-09T05:36:32.594Z,99.99
2018-10-09T05:37:42.422Z,99.99
2018-10-09T05:38:52.029Z,99.99
2018-10-09T05:40:01.975Z,99.99
2018-10-09T05:41:11.701Z,99.99
2018-10-09T05:42:21.648Z,99.99
2018-10-09T05:43:31.608Z,99.99
2018-10-09T05:44:41.689Z,99.99
2018-10-09T05:45:51.553Z,99.99
2018-10-09T05:47:01.511Z,99.99
2018-10-09T05:48:10.943Z,99.99
2018-10-09T05:49:20.630Z,99.99
2018-10-09T05:50:30.630Z,99.99
2018-10-09T05:51:40.576Z,99.99
2018-10-09T05:52:50.321Z,99.99
2018-10-09T05:54:00.053Z,99.99
2018-10-09T05:55:09.739Z,99.99
2018-10-09T05:56:19.421Z,99.99
2018-10-09T05:57:29.363Z,99.99
2018-10-09T05:58:39.309Z,99.99
2018-10-09T05:59:49.285Z,99.99
2018-10-09T06:00:59.234Z,99.99
2018-10-09T06:02:08.912Z,99.99
2018-10-09T06:03:18.600Z,99.99
2018-10-09T06:04:28.293Z,99.99
2018-10-09T06:05:38.238Z,99.99
2018-10-09T06:06:48.391Z,99.99
2018-10-09T06:07:58.126Z,99.99
2018-10-09T06:09:08.099Z,99.99
2018-10-09T06:10:18.031Z,99.99
2018-10-09T06:11:27.973Z,99.99
2018-10-09T06:12:37.909Z,99.99
2018-10-09T06:13:47.833Z,99.99
2018-10-09T06:14:57.771Z,99.99
2018-10-09T06:16:07.989Z,99.99
2018-10-09T06:17:18.038Z,99.99
2018-10-09T06:18:27.983Z,99.99
2018-10-09T06:19:37.402Z,99.99
2018-10-09T06:20:47.080Z,99.99
2018-10-09T06:21:57.052Z,99.99
2018-10-09T06:23:06.854Z,99.99
2018-10-09T06:24:16.799Z,99.99
2018-10-09T06:25:26.770Z,99.99
2018-10-09T06:26:36.440Z,99.99
2018-10-09T06:27:46.137Z,99.99
2018-10-09T06:28:56.257Z,99.99
2018-10-09T06:30:06.234Z,99.99
2018-10-09T06:31:16.182Z,99.99
2018-10-09T06:32:26.127Z,99.99
2018-10-09T06:33:36.115Z,99.99
2018-10-09T06:34:45.831Z,99.99
2018-10-09T06:35:55.820Z,99.99
2018-10-09T06:37:05.899Z,99.99
2018-10-09T06:38:15.514Z,99.99
2018-10-09T06:39:25.462Z,99.99
2018-10-09T06:40:35.535Z,99.99
2018-10-09T06:41:46.077Z,99.99
2018-10-09T06:42:56.047Z,99.99
2018-10-09T06:44:06.120Z,99.99
2018-10-09T06:45:15.911Z,99.99
2018-10-09T06:46:25.593Z,99.99
2018-10-09T06:47:35.432Z,99.99
2018-10-09T06:48:45.936Z,99.99
2018-10-09T06:49:55.386Z,99.99
2018-10-09T06:51:05.357Z,99.99
2018-10-09T06:52:15.413Z,99.99
2018-10-09T06:53:25.449Z,99.99
2018-10-09T06:54:36.214Z,99.99
2018-10-09T06:55:46.599Z,99.99
2018-10-09T06:56:56.572Z,99.99
2018-10-09T06:58:06.530Z,99.99
2018-10-09T06:59:16.483Z,99.99
2018-10-09T07:00:26.574Z,99.99
2018-10-09T07:01:36.528Z,99.99
2018-10-09T07:02:46.494Z,99.99
2018-10-09T07:03:56.442Z,99.99
2018-10-09T07:05:06.417Z,99.99
2018-10-09T07:06:16.394Z,99.99
2018-10-09T07:07:26.375Z,99.99
2018-10-09T07:08:36.342Z,99.99
2018-10-09T07:09:46.047Z,99.99
2018-10-09T07:10:56.008Z,99.99
2018-10-09T07:12:06.311Z,99.99
2018-10-09T07:13:16.283Z,99.99
2018-10-09T07:14:26.257Z,99.99
2018-10-09T07:15:36.193Z,99.99
2018-10-09T07:16:45.903Z,99.99
2018-10-09T07:17:55.672Z,99.99
2018-10-09T07:19:05.497Z,99.99
2018-10-09T07:20:15.195Z,99.99
2018-10-09T07:21:25.159Z,99.99
2018-10-09T07:22:35.122Z,99.99
2018-10-09T07:23:45.092Z,99.99
2018-10-09T07:24:55.366Z,99.99
2018-10-09T07:26:05.347Z,99.99
2018-10-09T07:27:15.066Z,99.99
2018-10-09T07:28:25.022Z,99.99
2018-10-09T07:29:34.727Z,99.99
2018-10-09T07:30:44.445Z,99.99
2018-10-09T07:31:54.137Z,99.99
2018-10-09T07:33:03.836Z,99.99
2018-10-09T07:34:13.821Z,99.99
2018-10-09T07:35:23.792Z,99.99
2018-10-09T07:36:33.298Z,99.99
2018-10-09T07:37:43.605Z,99.99
2018-10-09T07:38:53.664Z,99.99
2018-10-09T07:40:03.659Z,99.99
2018-10-09T07:41:13.622Z,99.99
2018-10-09T07:42:23.586Z,99.99
2018-10-09T07:43:33.542Z,99.99
2018-10-09T07:44:43.250Z,99.99
2018-10-09T07:45:52.951Z,99.99
2018-10-09T07:47:02.658Z,99.99
2018-10-09T07:48:12.620Z,99.99
2018-10-09T07:49:22.580Z,99.99
2018-10-09T07:50:32.548Z,99.99
2018-10-09T07:51:42.536Z,99.99
2018-10-09T07:52:52.595Z,99.99
2018-10-09T07:54:02.912Z,99.99
2018-10-09T07:55:12.884Z,99.99
2018-10-09T07:56:22.598Z,99.99
2018-10-09T07:57:32.642Z,99.99
2018-10-09T07:58:42.498Z,99.99
2018-10-09T07:59:53.005Z,99.99
2018-10-09T08:01:02.958Z,99.99
2018-10-09T08:02:12.943Z,99.99
2018-10-09T08:03:22.681Z,99.99
2018-10-09T08:04:32.194Z,99.99
2018-10-09T08:05:42.139Z,99.99
2018-10-09T08:06:52.100Z,99.99
2018-10-09T08:08:02.061Z,99.99
2018-10-09T08:09:11.778Z,99.99
2018-10-09T08:10:21.816Z,99.99
2018-10-09T08:11:31.832Z,99.99
2018-10-09T08:12:41.546Z,99.99
2018-10-09T08:13:51.529Z,99.99
2018-10-09T08:15:01.254Z,99.99
2018-10-09T08:16:11.307Z,99.99
2018-10-09T08:17:21.421Z,99.99
2018-10-09T08:18:31.392Z,99.99
2018-10-09T08:19:41.350Z,99.99
2018-10-09T08:20:51.323Z,99.99
2018-10-09T08:22:01.025Z,99.99
2018-10-09T08:23:10.733Z,99.99
2018-10-09T08:24:20.439Z,99.99
2018-10-09T08:25:30.186Z,99.99
2018-10-09T08:26:40.141Z,99.99
2018-10-09T08:27:50.162Z,99.99
2018-10-09T08:28:59.969Z,99.99
2018-10-09T08:30:09.695Z,99.99
2018-10-09T08:31:19.677Z,99.99
2018-10-09T08:32:29.646Z,99.99
2018-10-09T08:33:39.613Z,99.99
2018-10-09T08:34:49.347Z,99.99
2018-10-09T08:35:59.304Z,99.99
2018-10-09T08:37:09.285Z,99.99
2018-10-09T08:38:19.270Z,99.99
2018-10-09T08:39:28.964Z,99.99
2018-10-09T08:40:38.426Z,99.99
2018-10-09T08:41:48.394Z,99.99
2018-10-09T08:42:58.354Z,99.99
2018-10-09T08:44:08.068Z,99.99
2018-10-09T08:45:18.046Z,99.99
2018-10-09T08:46:28.209Z,99.99
2018-10-09T08:47:38.177Z,99.99
2018-10-09T08:48:47.867Z,99.99
2018-10-09T08:49:57.887Z,99.99
2018-10-09T08:51:07.845Z,99.99
2018-10-09T08:52:17.290Z,99.99
2018-10-09T08:53:27.252Z,99.99
2018-10-09T08:54:37.225Z,99.99
2018-10-09T08:55:46.932Z,99.99
2018-10-09T08:56:56.908Z,99.99
2018-10-09T08:58:06.922Z,99.99
2018-10-09T08:59:16.888Z,99.99
2018-10-09T09:00:26.853Z,99.99
2018-10-09T09:01:36.846Z,99.99
2018-10-09T09:02:46.287Z,99.99
2018-10-09T09:03:55.983Z,98.42
2018-10-09T09:05:05.959Z,97.75
2018-10-09T09:06:15.910Z,98.04
2018-10-09T09:07:25.908Z,97.75
2018-10-09T09:08:35.885Z,96.61
2018-10-09T09:09:45.873Z,95.7
2018-10-09T09:10:56.135Z,95.61
2018-10-09T09:12:06.125Z,96.61
2018-10-09T09:13:16.119Z,96.99
2018-10-09T09:14:26.071Z,96.99
2018-10-09T09:15:35.514Z,98.23
2018-10-09T09:16:45.481Z,98.71
2018-10-09T09:17:55.497Z,99.95
2018-10-09T09:19:05.475Z,99.99
2018-10-09T09:20:14.654Z,99.99
2018-10-09T09:21:24.511Z,99.99
2018-10-09T09:22:34.217Z,99.99
2018-10-09T09:23:44.170Z,99.99
2018-10-09T09:24:54.167Z,99.99
2018-10-09T09:26:04.267Z,99.99
2018-10-09T09:27:14.418Z,99.99
2018-10-09T09:28:25.153Z,99.99
2018-10-09T09:29:35.115Z,99.99
2018-10-09T09:30:45.082Z,99.99
2018-10-09T09:31:55.057Z,99.99
2018-10-09T09:33:04.682Z,99.99
2018-10-09T09:34:14.962Z,99.99
2018-10-09T09:35:24.654Z,99.99
2018-10-09T09:36:34.626Z,99.99
2018-10-09T09:37:44.069Z,99.99
2018-10-09T09:38:53.835Z,99.99
2018-10-09T09:40:03.803Z,99.71
2018-10-09T09:41:13.534Z,99.71
2018-10-09T09:42:23.230Z,98.9
2018-10-09T09:43:33.184Z,98.71
2018-10-09T09:44:42.949Z,96.89
2018-10-09T09:45:53.178Z,96.18
2018-10-09T09:47:03.730Z,94.74
2018-10-09T09:48:13.713Z,94.46
2018-10-09T09:49:23.683Z,94.46
2018-10-09T09:50:33.649Z,93.55
2018-10-09T09:51:43.369Z,93.26
2018-10-09T09:52:53.332Z,93.45
2018-10-09T09:54:03.300Z,92.49
2018-10-09T09:55:13.265Z,92.02
2018-10-09T09:56:23.337Z,89.76
2018-10-09T09:57:33.311Z,89
2018-10-09T09:58:43.696Z,87.99
2018-10-09T09:59:55.185Z,87.61
2018-10-09T10:01:04.628Z,87.32
2018-10-09T10:02:14.596Z,87.13
2018-10-09T10:03:24.288Z,85.74
2018-10-09T10:04:34.514Z,84.3
2018-10-09T10:05:44.476Z,83.44
2018-10-09T10:06:54.446Z,83.34
2018-10-09T10:08:04.454Z,83.53
2018-10-09T10:09:14.245Z,82.23
2018-10-09T10:10:24.614Z,81.37
2018-10-09T10:11:34.589Z,81.41
2018-10-09T10:12:44.839Z,81.02
2018-10-09T10:13:54.824Z,79.3
2018-10-09T10:15:04.848Z,80.64
2018-10-09T10:16:14.813Z,81.95
2018-10-09T10:17:24.822Z,81.75
2018-10-09T10:18:34.851Z,81.75
2018-10-09T10:19:44.573Z,81.23
2018-10-09T10:20:54.337Z,81.33
2018-10-09T10:22:04.324Z,80.89
2018-10-09T10:23:14.326Z,79.36
2018-10-09T10:24:24.584Z,78.63
2018-10-09T10:25:38.786Z,77.9
2018-10-09T10:26:48.771Z,76.46
2018-10-09T10:28:01.999Z,75.15
2018-10-09T10:29:19.091Z,74.68
2018-10-09T10:30:42.558Z,72.31
2018-10-09T10:32:02.380Z,72.64
2018-10-09T10:33:12.439Z,72.5
2018-10-09T10:34:38.358Z,72.79
2018-10-09T10:37:43.160Z,71.73
2018-10-09T10:39:03.677Z,72.02
2018-10-09T10:40:36.821Z,71.93
2018-10-09T10:41:52.985Z,71.39
2018-10-09T10:43:09.294Z,71.39
2018-10-09T10:44:22.410Z,70.04
2018-10-09T10:45:41.048Z,69.37
2018-10-09T10:46:59.801Z,69.56
2018-10-09T10:48:18.824Z,70.9
2018-10-09T10:49:38.868Z,69.37
2018-10-09T10:51:02.190Z,69.21
2018-10-09T10:52:20.030Z,68.35
2018-10-09T10:53:40.516Z,65.4
2018-10-09T10:54:55.344Z,64.95
2018-10-09T10:56:12.084Z,64.31
2018-10-09T10:57:28.797Z,62.32
2018-10-09T10:58:38.540Z,62.32
2018-10-09T10:59:48.273Z,62.51
2018-10-09T11:00:57.758Z,62.51
2018-10-09T11:02:07.503Z,61.74
2018-10-09T11:03:17.210Z,62.41
2018-10-09T11:04:27.166Z,63.25
2018-10-09T11:05:37.143Z,64.28
2018-10-09T11:06:46.869Z,65.01
2018-10-09T11:07:56.948Z,65.3
2018-10-09T11:09:07.543Z,64.73
2018-10-09T11:10:17.006Z,63.18
2018-10-09T11:11:26.739Z,64.25
2018-10-09T11:12:36.497Z,63.64
2018-10-09T11:13:46.465Z,62.38
2018-10-09T11:14:56.179Z,62.41
2018-10-09T11:16:06.152Z,61.94
2018-10-09T11:17:15.899Z,62.26
2018-10-09T11:18:25.866Z,61.1
2018-10-09T11:19:35.835Z,60.27
2018-10-09T11:20:45.285Z,58.92
2018-10-09T11:21:55.260Z,57.31
2018-10-09T11:23:05.222Z,57.5
2018-10-09T11:24:15.232Z,56.54
2018-10-09T11:25:25.176Z,55.09
2018-10-09T11:26:35.143Z,55
2018-10-09T11:27:45.270Z,55.09
2018-10-09T11:28:54.980Z,55.77
2018-10-09T11:30:05.157Z,53.74
2018-10-09T11:31:14.860Z,52.78
2018-10-09T11:32:24.652Z,52.56
2018-10-09T11:33:34.991Z,52.49
2018-10-09T11:34:44.702Z,52.49
2018-10-09T11:35:54.668Z,51.53
2018-10-09T11:37:04.811Z,52.2
2018-10-09T11:38:14.788Z,51.53
2018-10-09T11:39:24.504Z,52.3
2018-10-09T11:40:34.476Z,52.52
2018-10-09T11:41:44.443Z,55.57
2018-10-09T11:42:54.628Z,57.12
2018-10-09T11:44:04.476Z,57.67
2018-10-09T11:45:14.436Z,58.05
2018-10-09T11:46:24.140Z,57.92
2018-10-09T11:47:34.117Z,58.4
2018-10-09T11:48:44.107Z,58.89
2018-10-09T11:49:53.550Z,59.34
2018-10-09T11:51:03.506Z,58.12
2018-10-09T11:52:13.215Z,58.12
2018-10-09T11:53:23.202Z,58.02
2018-10-09T11:54:32.918Z,58.89
2018-10-09T11:55:42.623Z,58.95
2018-10-09T11:56:52.757Z,59.53
2018-10-09T11:58:02.712Z,60.49
2018-10-09T11:59:12.630Z,60.39
2018-10-09T12:00:22.631Z,61.14
2018-10-09T12:01:32.353Z,60.27
2018-10-09T12:02:42.094Z,60.46
2018-10-09T12:03:52.234Z,60.66
2018-10-09T12:05:02.241Z,60.75
2018-10-09T12:06:11.948Z,61.04
2018-10-09T12:07:21.912Z,61.04
2018-10-09T12:08:31.890Z,60.46
2018-10-09T12:09:41.864Z,59.6
2018-10-09T12:10:51.824Z,59.79
2018-10-09T12:12:01.533Z,59.79
2018-10-09T12:13:11.504Z,59.12
2018-10-09T12:14:21.478Z,59.12
2018-10-09T12:15:31.442Z,58.92
2018-10-09T12:16:41.702Z,58.54
2018-10-09T12:17:51.415Z,58.83
2018-10-09T12:19:01.412Z,58.83
2018-10-09T12:20:11.387Z,59.12
2018-10-09T12:21:21.169Z,60.27
2018-10-09T12:22:31.612Z,60.05
2018-10-09T12:23:41.583Z,60.63
2018-10-09T12:24:51.546Z,60.75
2018-10-09T12:26:01.530Z,59.69
2018-10-09T12:27:12.049Z,59.24
2018-10-09T12:28:21.801Z,57.9
2018-10-09T12:29:31.775Z,58.02
2018-10-09T12:30:41.770Z,58.31
2018-10-09T12:31:51.530Z,58.02
2018-10-09T12:33:01.640Z,58.89
2018-10-09T12:34:11.731Z,57.83
2018-10-09T12:35:21.429Z,57.18
2018-10-09T12:36:31.392Z,56.99
2018-10-09T12:37:41.356Z,56.73
2018-10-09T12:38:51.339Z,55.57
2018-10-09T12:40:01.301Z,55.77
2018-10-09T12:41:10.761Z,55.77
2018-10-09T12:42:20.463Z,56.54
2018-10-09T12:43:30.427Z,56.7
2018-10-09T12:44:40.128Z,56.92
2018-10-09T12:45:50.104Z,55.57
2018-10-09T12:46:59.809Z,56.27
2018-10-09T12:48:09.796Z,57.4
2018-10-09T12:49:19.768Z,58.37
2018-10-09T12:50:29.460Z,58.53
2018-10-09T12:51:39.647Z,59.94
2018-10-09T12:52:49.670Z,60.42
2018-10-09T12:53:59.799Z,61.29
2018-10-09T12:55:09.773Z,60.24
2018-10-09T12:56:19.786Z,60.42
2018-10-09T12:57:29.763Z,60.81
2018-10-09T12:58:39.897Z,60.97
2018-10-09T12:59:50.236Z,61.39
2018-10-09T13:01:00.204Z,61.49
2018-10-09T13:02:10.197Z,61.1
2018-10-09T13:03:20.173Z,61.16
2018-10-09T13:04:30.161Z,61.07
2018-10-09T13:05:40.127Z,61.07
2018-10-09T13:06:50.140Z,61.07
2018-10-09T13:07:59.928Z,61.1
2018-10-09T13:09:09.648Z,61.07
2018-10-09T13:10:19.610Z,61.29
2018-10-09T13:11:29.568Z,60.81
2018-10-09T13:12:39.539Z,60.81
2018-10-09T13:13:49.487Z,60.42
2018-10-09T13:14:59.186Z,60.62
2018-10-09T13:16:09.156Z,59.78
2018-10-09T13:17:19.433Z,59.69
2018-10-09T13:18:29.648Z,60.36
2018-10-09T13:19:39.596Z,60.27
2018-10-09T13:20:49.680Z,59.01
2018-10-09T13:22:00.358Z,59.49
2018-10-09T13:23:11.879Z,60.46
2018-10-09T13:24:21.864Z,60.14
2018-10-09T13:25:31.811Z,60.62
2018-10-09T13:26:41.265Z,60.52
2018-10-09T13:27:50.708Z,61.29
2018-10-09T13:29:00.160Z,61.49
2018-10-09T13:30:09.888Z,62.03
2018-10-09T13:31:19.587Z,61.46
2018-10-09T13:32:29.562Z,62.41
2018-10-09T13:33:39.252Z,62.41
2018-10-09T13:34:48.695Z,62.23
2018-10-09T13:35:58.670Z,62.8
2018-10-09T13:37:07.869Z,62.99
2018-10-09T13:38:17.819Z,63.64
2018-10-09T13:39:28.094Z,63.92
2018-10-09T13:40:38.055Z,63.64
2018-10-09T13:41:48.045Z,63.15
2018-10-09T13:42:58.042Z,63.48
2018-10-09T13:44:07.859Z,63.18
2018-10-09T13:45:17.994Z,62.51
2018-10-09T13:46:27.956Z,62.32
2018-10-09T13:47:38.275Z,61.97
2018-10-09T13:48:48.856Z,62.74
2018-10-09T13:49:58.810Z,61.97
2018-10-09T13:51:08.818Z,61.97
2018-10-09T13:52:18.783Z,61.97
2018-10-09T13:53:28.871Z,62.26
2018-10-09T13:54:38.827Z,62.26
2018-10-09T13:55:48.796Z,61.39
2018-10-09T13:56:58.762Z,61.58
2018-10-09T13:58:08.807Z,62.16
2018-10-09T13:59:18.775Z,62.35
2018-10-09T14:00:28.929Z,62.06
2018-10-09T14:01:39.176Z,62.16
2018-10-09T14:02:49.189Z,62.45
2018-10-09T14:03:59.024Z,62.83
2018-10-09T14:05:08.725Z,62.99
2018-10-09T14:06:18.883Z,63.22
2018-10-09T14:07:28.906Z,63.18
2018-10-09T14:08:38.878Z,63.6
2018-10-09T14:09:48.843Z,64.08
2018-10-09T14:10:58.619Z,64.05
2018-10-09T14:12:08.319Z,63.6
2018-10-09T14:13:17.761Z,63.22
2018-10-09T14:14:27.746Z,63.48
2018-10-09T14:15:37.457Z,63.99
2018-10-09T14:16:47.425Z,64.25
2018-10-09T14:17:57.132Z,64.53
2018-10-09T14:19:07.098Z,65.4
2018-10-09T14:20:17.064Z,65.59
2018-10-09T14:21:27.050Z,65.78
2018-10-09T14:22:37.339Z,66.27
2018-10-09T14:23:47.817Z,66.46
2018-10-09T14:24:57.791Z,66.55
2018-10-09T14:26:07.756Z,66.27
2018-10-09T14:27:17.204Z,66.1
2018-10-09T14:28:27.176Z,66.1
2018-10-09T14:29:36.869Z,65.91
2018-10-09T14:30:46.889Z,65.91
2018-10-09T14:31:56.578Z,66.01
2018-10-09T14:33:06.026Z,65.91
2018-10-09T14:34:15.734Z,66.68
2018-10-09T14:35:25.188Z,66.68
2018-10-09T14:36:35.163Z,66.88
2018-10-09T14:37:45.143Z,67.16
2018-10-09T14:38:55.100Z,67.13
2018-10-09T14:40:04.822Z,67.61
2018-10-09T14:41:14.795Z,67.51
2018-10-09T14:42:24.768Z,67.55
2018-10-09T14:43:34.733Z,67.99
2018-10-09T14:44:44.183Z,68.48
2018-10-09T14:45:53.633Z,68.57
2018-10-09T14:47:03.610Z,68.86
2018-10-09T14:48:13.077Z,69.44
2018-10-09T14:49:23.040Z,69.34
2018-10-09T14:50:33.004Z,69.92
2018-10-09T14:51:42.963Z,69.63
2018-10-09T14:52:53.088Z,69.53
2018-10-09T14:54:03.072Z,69.73
2018-10-09T14:55:13.032Z,69.73
2018-10-09T14:56:23.003Z,69.92
2018-10-09T14:57:33.070Z,69.53
2018-10-09T14:58:43.314Z,69.53
2018-10-09T14:59:53.288Z,70.01
2018-10-09T15:01:03.283Z,69.34
2018-10-09T15:02:13.232Z,69.15
2018-10-09T15:03:23.317Z,69.38
2018-10-09T15:04:33.747Z,68.48
2018-10-09T15:05:43.480Z,68.7